Time;durP1;ratioP1;P1;durP2;ratioP2;P2;SDS_P1;SDS_P2;PMS_P1;PMS_P2;Temp;Humidity;BMP_temperature;BMP_pressure;BME280_temperature;BME280_humidity;BME280_pressure;Samples;Min_cycle;Max_cycle;Signal;HPM_P1;HPM_P2
2021/11/24 00:01:28;;;;;;;41.27;18.67;;;6.90;99.90;;;;;;5005569;28;20332;-75
2021/11/24 00:03:55;;;;;;;38.67;19.20;;;6.90;99.90;;;;;;5005934;28;20237;-75
2021/11/24 00:06:22;;;;;;;37.83;18.40;;;6.90;99.90;;;;;;5005695;28;20680;-75
2021/11/24 00:08:49;;;;;;;39.07;18.17;;;6.90;99.90;;;;;;5005920;28;20213;-75
2021/11/24 00:11:17;;;;;;;35.60;17.97;;;6.90;99.90;;;;;;5005408;28;20216;-76
2021/11/24 00:13:44;;;;;;;32.47;16.43;;;6.90;99.90;;;;;;5005601;28;20229;-75
2021/11/24 00:16:11;;;;;;;40.63;17.97;;;6.90;99.90;;;;;;5005832;28;20983;-75
2021/11/24 00:18:39;;;;;;;34.03;17.37;;;6.90;99.90;;;;;;5005433;28;20213;-75
2021/11/24 00:21:07;;;;;;;31.13;16.43;;;6.90;99.90;;;;;;5005563;28;20213;-75
2021/11/24 00:23:34;;;;;;;36.53;18.10;;;6.80;99.90;;;;;;5005868;28;20202;-75
2021/11/24 00:26:01;;;;;;;36.57;17.27;;;6.80;99.90;;;;;;5005683;28;20211;-74
2021/11/24 00:28:29;;;;;;;33.53;16.67;;;6.80;99.90;;;;;;5005302;28;20216;-74
2021/11/24 00:30:56;;;;;;;35.77;17.70;;;6.80;99.90;;;;;;5005387;28;20668;-74
2021/11/24 00:33:23;;;;;;;35.67;17.37;;;6.80;99.90;;;;;;5005518;28;20209;-74
2021/11/24 00:35:50;;;;;;;35.73;18.50;;;6.90;99.90;;;;;;5005639;28;20296;-76
2021/11/24 00:38:17;;;;;;;36.23;17.53;;;6.90;99.90;;;;;;5005284;28;20759;-76
2021/11/24 00:40:44;;;;;;;36.93;18.67;;;6.80;99.90;;;;;;5005849;28;20236;-77
2021/11/24 00:43:11;;;;;;;37.03;17.17;;;6.80;99.90;;;;;;5005934;28;20293;-77
2021/11/24 00:45:40;;;;;;;34.90;16.97;;;6.80;99.90;;;;;;5005849;28;20209;-77
2021/11/24 00:48:07;;;;;;;36.10;17.77;;;6.80;99.90;;;;;;5005631;28;20212;-77
2021/11/24 00:50:34;;;;;;;35.43;17.50;;;6.90;99.90;;;;;;5005477;28;20252;-77
2021/11/24 00:53:00;;;;;;;34.33;17.90;;;6.90;99.90;;;;;;5007555;28;20243;-76
2021/11/24 00:55:28;;;;;;;34.80;16.60;;;6.90;99.90;;;;;;5008799;28;20241;-76
2021/11/24 00:57:55;;;;;;;34.17;17.90;;;6.90;99.90;;;;;;5008910;28;20240;-76
2021/11/24 01:00:22;;;;;;;34.50;17.37;;;6.90;99.90;;;;;;5008871;28;20212;-76
2021/11/24 01:02:51;;;;;;;31.20;17.10;;;6.90;99.90;;;;;;5008606;28;20672;-77
2021/11/24 01:05:18;;;;;;;32.13;17.30;;;6.90;99.90;;;;;;5008718;28;20216;-75
2021/11/24 01:07:45;;;;;;;33.30;16.70;;;6.90;99.90;;;;;;5009002;28;20201;-74
2021/11/24 01:10:14;;;;;;;31.67;16.73;;;6.90;99.90;;;;;;5008128;28;20773;-74
2021/11/24 01:12:42;;;;;;;31.43;16.50;;;6.90;99.90;;;;;;5008938;28;20297;-77
2021/11/24 01:15:10;;;;;;;31.90;17.27;;;6.90;99.90;;;;;;5008415;28;20237;-77
2021/11/24 01:17:37;;;;;;;30.13;16.40;;;6.90;99.90;;;;;;5009001;28;20300;-82
2021/11/24 01:20:06;;;;;;;34.43;17.90;;;6.90;99.90;;;;;;5008759;28;20212;-75
2021/11/24 01:22:34;;;;;;;32.93;16.37;;;6.90;99.90;;;;;;5008430;28;20693;-74
2021/11/24 01:25:01;;;;;;;33.53;16.60;;;6.80;99.90;;;;;;5008616;28;20614;-76
2021/11/24 01:27:29;;;;;;;32.03;16.77;;;6.80;99.90;;;;;;5008202;28;20721;-76
2021/11/24 01:29:56;;;;;;;31.63;15.83;;;6.80;99.90;;;;;;5008471;28;20217;-75
2021/11/24 01:32:23;;;;;;;31.67;16.30;;;6.80;99.90;;;;;;5008242;28;20668;-76
2021/11/24 01:34:49;;;;;;;31.00;16.47;;;6.80;99.90;;;;;;5008376;28;20321;-75
2021/11/24 01:37:18;;;;;;;32.13;15.40;;;6.80;99.90;;;;;;5008350;28;20309;-75
2021/11/24 01:39:45;;;;;;;34.93;16.93;;;6.80;99.90;;;;;;5007990;28;20234;-75
2021/11/24 01:42:12;;;;;;;33.10;16.60;;;6.80;99.90;;;;;;5007908;28;20211;-75
2021/11/24 01:44:38;;;;;;;31.80;15.30;;;6.80;99.90;;;;;;5008102;28;20217;-76
2021/11/24 01:47:06;;;;;;;36.33;16.00;;;6.80;99.90;;;;;;5008126;28;20205;-76
2021/11/24 01:49:34;;;;;;;37.23;16.40;;;6.80;99.90;;;;;;5007858;28;20293;-75
2021/11/24 01:52:01;;;;;;;31.40;15.33;;;6.80;99.90;;;;;;5008109;28;20210;-75
2021/11/24 01:54:31;;;;;;;35.37;15.93;;;6.80;99.90;;;;;;5007993;28;20477;-75
2021/11/24 01:56:58;;;;;;;30.63;15.20;;;6.80;99.90;;;;;;5007624;28;20303;-75
2021/11/24 01:59:25;;;;;;;29.43;15.10;;;6.80;99.90;;;;;;5007645;28;20297;-75
2021/11/24 02:01:53;;;;;;;28.03;14.17;;;6.80;99.90;;;;;;5007480;28;20233;-75
2021/11/24 02:04:21;;;;;;;32.80;15.47;;;6.80;99.90;;;;;;5006088;28;20300;-75
2021/11/24 02:06:50;;;;;;;31.33;14.47;;;6.80;99.90;;;;;;5007794;28;20304;-75
2021/11/24 02:09:18;;;;;;;28.07;14.20;;;6.80;99.90;;;;;;5007644;28;20209;-75
2021/11/24 02:11:46;;;;;;;24.00;14.03;;;6.80;99.90;;;;;;5007857;28;20213;-75
2021/11/24 02:14:15;;;;;;;27.53;14.27;;;6.70;99.90;;;;;;5007385;28;20255;-75
2021/11/24 02:16:43;;;;;;;26.27;13.77;;;6.70;99.90;;;;;;5007739;28;20607;-75
2021/11/24 02:19:10;;;;;;;29.83;13.80;;;6.70;99.90;;;;;;5007800;28;20216;-75
2021/11/24 02:21:39;;;;;;;24.90;13.13;;;6.70;99.90;;;;;;5007805;28;20237;-75
2021/11/24 02:24:06;;;;;;;27.87;13.83;;;6.70;99.90;;;;;;5007714;28;20206;-75
2021/11/24 02:26:33;;;;;;;27.97;13.50;;;6.70;99.90;;;;;;5007316;28;20209;-77
2021/11/24 02:29:00;;;;;;;21.50;12.30;;;6.70;99.90;;;;;;5007795;28;20202;-77
2021/11/24 02:31:28;;;;;;;22.67;12.23;;;6.70;99.90;;;;;;5007614;28;20297;-77
2021/11/24 02:33:57;;;;;;;23.43;13.17;;;6.70;99.90;;;;;;5007436;28;20304;-77
2021/11/24 02:36:25;;;;;;;23.20;13.03;;;6.70;99.90;;;;;;5007110;28;20239;-77
2021/11/24 02:38:54;;;;;;;23.37;12.27;;;6.70;99.90;;;;;;5007169;28;20229;-77
2021/11/24 02:41:21;;;;;;;22.53;12.23;;;6.70;99.90;;;;;;5007411;28;20234;-76
2021/11/24 02:43:48;;;;;;;23.43;11.50;;;6.70;99.90;;;;;;5007550;28;20205;-77
2021/11/24 02:46:15;;;;;;;24.37;12.50;;;6.70;99.90;;;;;;5007198;28;20218;-77
2021/11/24 02:48:42;;;;;;;23.00;12.13;;;6.70;99.90;;;;;;5006788;28;20209;-77
2021/11/24 02:51:08;;;;;;;23.53;12.53;;;6.70;99.90;;;;;;5007238;28;20209;-75
2021/11/24 02:53:37;;;;;;;22.43;12.07;;;6.70;99.90;;;;;;5006970;28;20656;-76
2021/11/24 02:56:06;;;;;;;26.03;12.60;;;6.70;99.90;;;;;;5006901;28;20243;-77
2021/11/24 02:58:33;;;;;;;23.23;12.70;;;6.70;99.90;;;;;;5006749;28;20232;-76
2021/11/24 03:01:02;;;;;;;22.27;12.03;;;6.70;99.90;;;;;;5006642;28;20209;-76
2021/11/24 03:03:29;;;;;;;22.60;12.43;;;6.70;99.90;;;;;;5006964;28;20313;-76
2021/11/24 03:05:56;;;;;;;22.67;11.97;;;6.70;99.90;;;;;;5006544;28;20212;-76
2021/11/24 03:08:23;;;;;;;26.20;12.27;;;6.60;99.90;;;;;;5006785;28;20206;-78
2021/11/24 03:10:50;;;;;;;27.90;13.20;;;6.70;99.90;;;;;;5007079;28;20206;-76
2021/11/24 03:13:18;;;;;;;24.87;13.50;;;6.60;99.90;;;;;;5006784;28;20268;-77
2021/11/24 03:15:45;;;;;;;24.17;12.73;;;6.60;99.90;;;;;;5006171;28;20320;-77
2021/11/24 03:18:12;;;;;;;27.47;12.67;;;6.60;99.90;;;;;;5006739;28;20296;-77
2021/11/24 03:20:40;;;;;;;23.43;12.63;;;6.60;99.90;;;;;;5007240;28;20213;-77
2021/11/24 03:23:08;;;;;;;29.47;12.63;;;6.60;99.90;;;;;;5006941;28;20258;-77
2021/11/24 03:25:35;;;;;;;26.33;13.17;;;6.60;99.90;;;;;;5007096;28;20299;-76
2021/11/24 03:28:03;;;;;;;29.97;13.17;;;6.60;99.90;;;;;;5006816;28;20301;-76
2021/11/24 03:30:33;;;;;;;30.13;13.97;;;6.60;99.90;;;;;;5006536;28;20646;-76
2021/11/24 03:33:04;;;;;;;29.33;13.37;;;6.60;99.90;;;;;;5006806;28;20209;-76
2021/11/24 03:35:34;;;;;;;26.90;14.13;;;6.70;99.90;;;;;;5006881;28;20237;-72
2021/11/24 03:38:02;;;;;;;30.43;13.63;;;6.70;99.90;;;;;;5006642;28;20312;-75
2021/11/24 03:40:31;;;;;;;30.00;13.10;;;6.60;99.90;;;;;;5006303;28;20464;-74
2021/11/24 03:42:59;;;;;;;30.07;13.73;;;6.60;99.90;;;;;;5016450;28;20205;-75
2021/11/24 03:45:28;;;;;;;28.60;13.97;;;6.60;99.90;;;;;;5023626;28;20212;-75
2021/11/24 03:47:58;;;;;;;24.43;12.93;;;6.60;99.90;;;;;;5023899;28;20212;-75
2021/11/24 03:50:25;;;;;;;28.03;13.97;;;6.70;99.90;;;;;;5023587;28;20211;-74
2021/11/24 03:52:52;;;;;;;25.20;13.50;;;6.70;99.90;;;;;;5023783;28;20209;-75
2021/11/24 03:55:19;;;;;;;29.00;13.17;;;6.70;99.90;;;;;;5023524;28;20312;-75
2021/11/24 03:57:48;;;;;;;29.30;12.53;;;6.70;99.90;;;;;;5023570;28;20235;-76
2021/11/24 04:00:17;;;;;;;23.37;12.60;;;6.70;99.90;;;;;;5023646;28;20243;-75
2021/11/24 04:02:44;;;;;;;26.90;14.07;;;6.70;99.90;;;;;;5023481;28;20247;-76
2021/11/24 04:05:13;;;;;;;25.60;12.80;;;6.70;99.90;;;;;;5023138;28;20765;-74
2021/11/24 04:07:40;;;;;;;27.00;13.60;;;6.70;99.90;;;;;;5023472;28;20332;-75
2021/11/24 04:10:10;;;;;;;24.77;11.60;;;6.70;99.90;;;;;;5023510;28;20794;-75
2021/11/24 04:12:38;;;;;;;29.63;13.87;;;6.70;99.90;;;;;;5023272;28;20209;-75
2021/11/24 04:15:06;;;;;;;23.33;12.20;;;6.70;99.90;;;;;;5016282;28;20232;-76
2021/11/24 04:17:32;;;;;;;26.17;12.93;;;6.70;99.90;;;;;;5005276;28;20305;-75
2021/11/24 04:20:00;;;;;;;24.20;11.90;;;6.60;99.90;;;;;;5004668;28;20473;-75
2021/11/24 04:22:28;;;;;;;28.43;12.63;;;6.60;99.90;;;;;;5005528;28;20684;-75
2021/11/24 04:24:55;;;;;;;25.20;12.97;;;6.60;99.90;;;;;;5006116;28;20300;-75
2021/11/24 04:27:22;;;;;;;29.80;13.90;;;6.70;99.90;;;;;;5004575;28;20304;-75
2021/11/24 04:29:50;;;;;;;26.70;13.50;;;6.70;99.90;;;;;;5005799;28;20633;-76
2021/11/24 04:32:17;;;;;;;31.60;14.37;;;6.70;99.90;;;;;;5005443;28;20209;-75
2021/11/24 04:34:44;;;;;;;26.07;13.63;;;6.70;99.90;;;;;;5005797;28;20222;-75
2021/11/24 04:37:11;;;;;;;30.87;14.70;;;6.60;99.90;;;;;;5005728;28;20312;-75
2021/11/24 04:39:41;;;;;;;31.93;13.73;;;6.70;99.90;;;;;;5005061;28;20692;-75
2021/11/24 04:42:08;;;;;;;30.07;14.53;;;6.70;99.90;;;;;;5005890;28;20205;-75
2021/11/24 04:44:35;;;;;;;32.17;14.33;;;6.70;99.90;;;;;;5005439;28;20219;-75
2021/11/24 04:47:03;;;;;;;31.90;14.87;;;6.70;99.90;;;;;;5005411;28;20296;-75
2021/11/24 04:49:30;;;;;;;27.70;13.70;;;6.70;99.90;;;;;;5005508;28;20210;-75
2021/11/24 04:51:57;;;;;;;28.13;13.67;;;6.70;99.90;;;;;;5005557;28;20675;-76
2021/11/24 04:54:23;;;;;;;30.43;13.20;;;6.70;99.90;;;;;;5005371;28;20205;-76
2021/11/24 04:56:52;;;;;;;31.97;13.90;;;6.70;99.90;;;;;;5005305;28;20273;-76
2021/11/24 04:59:18;;;;;;;26.70;13.03;;;6.70;99.90;;;;;;5004987;28;20296;-76
2021/11/24 05:01:45;;;;;;;27.07;13.33;;;6.70;99.90;;;;;;5005213;28;20339;-75
2021/11/24 05:04:12;;;;;;;22.90;12.67;;;6.70;99.90;;;;;;5005073;28;20296;-76
2021/11/24 05:06:39;;;;;;;26.10;13.23;;;6.70;99.90;;;;;;5005359;28;20210;-75
2021/11/24 05:09:07;;;;;;;27.57;13.07;;;6.80;99.90;;;;;;5005031;28;20209;-76
2021/11/24 05:11:36;;;;;;;25.27;12.50;;;6.80;99.90;;;;;;5005153;28;20725;-75
2021/11/24 05:14:06;;;;;;;25.53;13.40;;;6.80;99.90;;;;;;5004805;28;20245;-75
2021/11/24 05:16:34;;;;;;;23.90;13.27;;;6.80;99.90;;;;;;5004728;28;20691;-76
2021/11/24 05:19:02;;;;;;;23.73;12.50;;;6.70;99.90;;;;;;5005018;28;20210;-75
2021/11/24 05:21:31;;;;;;;25.70;12.80;;;6.70;99.90;;;;;;5005135;28;20202;-76
2021/11/24 05:23:59;;;;;;;28.67;13.30;;;6.70;99.90;;;;;;5005208;28;20292;-76
2021/11/24 05:26:26;;;;;;;26.50;13.63;;;6.70;99.90;;;;;;5004616;28;20206;-75
2021/11/24 05:28:53;;;;;;;25.33;12.93;;;6.70;99.90;;;;;;5005092;28;20296;-75
2021/11/24 05:31:22;;;;;;;24.93;12.60;;;6.70;99.90;;;;;;5004622;28;20328;-75
2021/11/24 05:33:49;;;;;;;28.70;13.33;;;6.70;99.90;;;;;;5005012;28;20289;-75
2021/11/24 05:36:16;;;;;;;26.53;13.17;;;6.70;99.90;;;;;;5004676;28;20237;-75
2021/11/24 05:38:44;;;;;;;26.97;13.43;;;6.70;99.90;;;;;;5006016;28;20229;-76
2021/11/24 05:41:11;;;;;;;25.20;13.27;;;6.70;99.90;;;;;;5007857;28;20772;-75
2021/11/24 05:43:38;;;;;;;26.17;13.20;;;6.70;99.90;;;;;;5007968;28;20212;-75
2021/11/24 05:46:13;;;;;;;24.57;13.13;;;6.70;99.90;;;;;;5008163;28;20566;-76
2021/11/24 05:48:44;;;;;;;26.03;12.63;;;6.70;99.90;;;;;;5007956;28;20196;-75
2021/11/24 05:51:11;;;;;;;27.70;12.57;;;6.70;99.90;;;;;;5008044;28;20198;-75
2021/11/24 05:53:38;;;;;;;26.20;12.97;;;6.70;99.90;;;;;;5007811;28;20292;-76
2021/11/24 05:56:05;;;;;;;23.17;12.87;;;6.70;99.90;;;;;;5007737;28;20832;-75
2021/11/24 05:58:32;;;;;;;20.63;12.10;;;6.70;99.90;;;;;;5007822;28;20288;-75
2021/11/24 06:00:59;;;;;;;25.30;13.30;;;6.70;99.90;;;;;;5007466;28;20209;-73
2021/11/24 06:03:26;;;;;;;26.27;13.00;;;6.70;99.90;;;;;;5008071;28;20276;-76
2021/11/24 06:05:55;;;;;;;26.23;13.27;;;6.70;99.90;;;;;;5007666;28;20683;-76
2021/11/24 06:08:22;;;;;;;27.90;12.67;;;6.70;99.90;;;;;;5007693;28;20297;-76
2021/11/24 06:10:49;;;;;;;27.47;13.67;;;6.70;99.90;;;;;;5007661;28;20305;-75
2021/11/24 06:13:16;;;;;;;26.90;12.97;;;6.70;99.90;;;;;;5007168;28;20678;-75
2021/11/24 06:15:43;;;;;;;25.97;13.43;;;6.70;99.90;;;;;;5006034;28;20324;-75
2021/11/24 06:18:10;;;;;;;26.47;13.60;;;6.70;99.90;;;;;;5007208;28;20620;-75
2021/11/24 06:20:39;;;;;;;27.17;14.33;;;6.70;99.90;;;;;;5007512;28;20221;-75
2021/11/24 06:23:08;;;;;;;25.60;13.53;;;6.70;99.90;;;;;;5007872;28;20220;-75
2021/11/24 06:25:35;;;;;;;26.33;13.00;;;6.70;99.90;;;;;;5007731;28;20217;-75
2021/11/24 06:28:02;;;;;;;24.20;12.90;;;6.70;99.90;;;;;;5007244;28;20245;-75
2021/11/24 06:30:28;;;;;;;28.13;13.43;;;6.70;99.90;;;;;;5007379;28;20206;-74
2021/11/24 06:32:56;;;;;;;29.67;14.97;;;6.70;99.90;;;;;;5007442;28;20668;-75
2021/11/24 06:35:23;;;;;;;24.57;13.00;;;6.70;99.90;;;;;;5006918;28;20721;-75
2021/11/24 06:37:50;;;;;;;30.27;13.83;;;6.70;99.90;;;;;;5007303;28;20623;-75
2021/11/24 06:40:18;;;;;;;26.87;13.50;;;6.70;99.90;;;;;;5006977;28;20697;-75
2021/11/24 06:42:45;;;;;;;26.47;13.37;;;6.70;99.90;;;;;;5007011;28;20220;-75
2021/11/24 06:45:13;;;;;;;26.00;13.37;;;6.70;99.90;;;;;;5007284;28;20214;-75
2021/11/24 06:47:41;;;;;;;29.50;15.10;;;6.70;99.90;;;;;;5007049;28;20210;-75
2021/11/24 06:50:09;;;;;;;25.77;13.07;;;6.70;99.90;;;;;;5006085;28;20738;-75
2021/11/24 06:52:37;;;;;;;22.90;12.93;;;6.70;99.90;;;;;;5007244;28;20293;-75
2021/11/24 06:55:04;;;;;;;24.60;13.33;;;6.70;99.90;;;;;;5006984;28;20209;-74
2021/11/24 06:57:33;;;;;;;25.47;14.13;;;6.70;99.90;;;;;;5006885;28;20237;-75
2021/11/24 06:59:59;;;;;;;24.27;13.80;;;6.70;99.90;;;;;;5006963;28;20217;-75
2021/11/24 07:02:26;;;;;;;25.37;14.50;;;6.70;99.90;;;;;;5006479;28;20607;-74
2021/11/24 07:04:53;;;;;;;26.93;14.30;;;6.70;99.90;;;;;;5006551;28;20253;-75
2021/11/24 07:07:20;;;;;;;25.93;13.57;;;6.70;99.90;;;;;;5006585;28;20219;-75
2021/11/24 07:09:48;;;;;;;28.90;14.57;;;6.70;99.90;;;;;;5006902;28;20210;-74
2021/11/24 07:12:15;;;;;;;25.23;13.70;;;6.70;99.90;;;;;;5006839;28;20253;-75
2021/11/24 07:14:43;;;;;;;26.20;14.77;;;6.70;99.90;;;;;;5007127;28;20296;-75
2021/11/24 07:17:10;;;;;;;27.23;14.63;;;6.70;99.90;;;;;;5006836;28;20316;-75
2021/11/24 07:19:38;;;;;;;26.13;14.40;;;6.70;99.90;;;;;;5007155;28;20288;-75
2021/11/24 07:22:05;;;;;;;26.23;14.67;;;6.70;99.90;;;;;;5006788;28;20300;-75
2021/11/24 07:24:32;;;;;;;31.13;14.80;;;6.70;99.90;;;;;;5006697;28;20233;-75
2021/11/24 07:26:59;;;;;;;27.77;14.83;;;6.70;99.90;;;;;;5006526;28;20210;-75
2021/11/24 07:29:26;;;;;;;28.10;14.23;;;6.80;99.90;;;;;;5006665;28;20300;-75
2021/11/24 07:31:54;;;;;;;30.67;14.80;;;6.70;99.90;;;;;;5006656;28;20209;-75
2021/11/24 07:34:21;;;;;;;28.60;14.50;;;6.70;99.90;;;;;;5006089;28;20316;-76
2021/11/24 07:36:48;;;;;;;25.57;13.67;;;6.80;99.90;;;;;;5006149;28;20328;-75
2021/11/24 07:39:15;;;;;;;27.30;13.23;;;6.80;99.90;;;;;;5006630;28;20273;-75
2021/11/24 07:41:42;;;;;;;27.50;13.43;;;6.80;99.90;;;;;;5006235;28;20678;-75
2021/11/24 07:44:09;;;;;;;26.40;13.67;;;6.80;99.90;;;;;;5006361;28;20305;-75
2021/11/24 07:46:36;;;;;;;25.03;13.37;;;6.90;99.90;;;;;;5006316;28;20214;-74
2021/11/24 07:49:06;;;;;;;22.77;13.20;;;6.90;99.90;;;;;;5006671;28;20233;-75
2021/11/24 07:51:33;;;;;;;29.90;14.37;;;6.90;99.90;;;;;;5005907;28;20245;-75
2021/11/24 07:54:00;;;;;;;22.43;12.73;;;6.90;99.90;;;;;;5006037;28;20292;-75
2021/11/24 07:56:28;;;;;;;25.57;13.70;;;6.90;99.90;;;;;;5005995;28;20256;-75
2021/11/24 07:58:55;;;;;;;23.20;12.07;;;6.90;99.90;;;;;;5005838;28;20846;-75
2021/11/24 08:01:22;;;;;;;21.23;12.53;;;7.00;99.90;;;;;;5005894;28;20335;-75
2021/11/24 08:03:49;;;;;;;22.47;13.53;;;7.00;99.90;;;;;;5005939;28;20252;-74
2021/11/24 08:06:17;;;;;;;26.40;13.10;;;7.00;99.90;;;;;;5005936;28;20582;-74
2021/11/24 08:08:44;;;;;;;24.60;13.20;;;7.00;99.90;;;;;;5005828;28;20224;-75
2021/11/24 08:11:11;;;;;;;24.33;12.73;;;7.00;99.90;;;;;;5005688;28;20739;-75
2021/11/24 08:13:38;;;;;;;24.43;12.90;;;7.00;99.90;;;;;;5006200;28;20268;-75
2021/11/24 08:16:05;;;;;;;24.10;12.63;;;7.00;99.90;;;;;;5006012;28;20296;-75
2021/11/24 08:18:32;;;;;;;22.77;13.07;;;7.00;99.90;;;;;;5005892;28;20233;-75
2021/11/24 08:20:59;;;;;;;22.93;12.50;;;7.00;99.90;;;;;;5005826;28;20253;-75
2021/11/24 08:23:27;;;;;;;22.27;12.77;;;7.10;99.90;;;;;;5005977;28;20244;-75
2021/11/24 08:25:55;;;;;;;21.63;12.40;;;7.00;99.90;;;;;;5006122;28;20216;-75
2021/11/24 08:28:22;;;;;;;21.80;12.33;;;7.00;99.90;;;;;;5005738;28;20246;-75
2021/11/24 08:30:49;;;;;;;21.13;12.27;;;7.00;99.90;;;;;;5005965;28;20292;-75
2021/11/24 08:33:16;;;;;;;19.87;12.33;;;7.10;99.90;;;;;;5006010;28;20284;-75
2021/11/24 08:35:43;;;;;;;16.43;10.97;;;7.10;99.90;;;;;;5005722;28;20998;-75
2021/11/24 08:38:10;;;;;;;21.57;11.53;;;7.00;99.90;;;;;;5005740;28;20614;-75
2021/11/24 08:40:39;;;;;;;18.50;10.70;;;7.10;99.90;;;;;;5005647;28;20228;-75
2021/11/24 08:43:06;;;;;;;17.20;11.23;;;7.10;99.90;;;;;;5005789;28;20708;-75
2021/11/24 08:45:35;;;;;;;17.67;11.33;;;7.00;99.90;;;;;;5005976;28;20258;-75
2021/11/24 08:48:03;;;;;;;22.43;12.37;;;7.00;99.90;;;;;;5005682;28;20350;-75
2021/11/24 08:50:31;;;;;;;20.13;11.80;;;7.00;99.90;;;;;;5005663;28;20290;-74
2021/11/24 08:52:59;;;;;;;21.20;11.80;;;7.00;99.90;;;;;;5005738;28;20237;-75
2021/11/24 08:55:26;;;;;;;22.80;11.80;;;6.90;99.90;;;;;;5005405;28;20666;-75
2021/11/24 08:57:54;;;;;;;18.40;11.30;;;6.90;99.90;;;;;;5005334;28;20255;-75
2021/11/24 09:00:23;;;;;;;21.53;11.83;;;7.00;99.90;;;;;;5005568;28;20213;-75
2021/11/24 09:02:50;;;;;;;22.60;12.27;;;7.00;99.90;;;;;;5005486;28;20656;-75
2021/11/24 09:05:18;;;;;;;26.47;13.63;;;7.00;99.90;;;;;;5004977;28;20300;-74
2021/11/24 09:07:48;;;;;;;22.63;13.07;;;7.00;99.90;;;;;;5005401;28;20213;-75
2021/11/24 09:10:16;;;;;;;25.40;14.13;;;7.00;99.90;;;;;;5005167;28;20763;-75
2021/11/24 09:12:43;;;;;;;22.20;13.07;;;7.00;99.90;;;;;;5005235;28;20259;-75
2021/11/24 09:15:12;;;;;;;22.77;12.47;;;7.00;99.90;;;;;;5008858;28;20237;-75
2021/11/24 09:17:39;;;;;;;23.17;12.90;;;7.00;99.90;;;;;;5008268;28;20699;-75
2021/11/24 09:20:07;;;;;;;23.90;12.57;;;7.00;99.90;;;;;;5008944;28;20620;-75
2021/11/24 09:22:34;;;;;;;24.63;12.13;;;7.10;99.90;;;;;;5008347;28;20297;-75
2021/11/24 09:25:01;;;;;;;21.60;11.90;;;7.10;99.90;;;;;;5008685;28;20289;-75
2021/11/24 09:27:33;;;;;;;22.70;12.57;;;7.10;99.90;;;;;;5008231;28;20216;-75
2021/11/24 09:30:01;;;;;;;21.63;12.27;;;7.10;99.90;;;;;;5008397;28;20197;-75
2021/11/24 09:32:30;;;;;;;27.67;13.13;;;7.10;99.90;;;;;;5008050;28;20577;-75
2021/11/24 09:34:59;;;;;;;23.23;12.57;;;7.10;99.90;;;;;;5008376;28;20261;-75
2021/11/24 09:37:25;;;;;;;23.13;12.40;;;7.10;99.90;;;;;;5008183;28;20237;-75
2021/11/24 09:39:52;;;;;;;20.23;12.37;;;7.20;99.90;;;;;;5008416;28;20233;-75
2021/11/24 09:42:23;;;;;;;22.40;11.60;;;7.10;99.90;;;;;;5008177;28;20297;-75
2021/11/24 09:44:50;;;;;;;20.23;11.97;;;7.20;99.90;;;;;;5008128;28;20194;-75
2021/11/24 09:47:17;;;;;;;21.73;11.57;;;7.20;99.90;;;;;;5008109;28;20292;-75
2021/11/24 09:49:49;;;;;;;18.43;11.90;;;7.20;99.90;;;;;;5008563;28;20300;-76
2021/11/24 09:52:19;;;;;;;22.67;11.87;;;7.20;99.90;;;;;;5007888;28;20294;-75
2021/11/24 09:54:49;;;;;;;20.43;12.17;;;7.20;99.90;;;;;;5008147;28;20228;-75
2021/11/24 09:57:18;;;;;;;21.07;12.00;;;7.20;99.90;;;;;;5007889;28;20229;-75
2021/11/24 09:59:45;;;;;;;17.77;11.70;;;7.30;99.90;;;;;;5008202;28;20213;-75
2021/11/24 10:02:13;;;;;;;21.63;13.00;;;7.30;99.90;;;;;;5007641;28;20332;-75
2021/11/24 10:04:42;;;;;;;20.20;12.33;;;7.30;99.90;;;;;;5008200;28;20245;-75
2021/11/24 10:07:11;;;;;;;19.93;11.77;;;7.30;99.90;;;;;;5007451;28;20715;-74
2021/11/24 10:09:38;;;;;;;18.60;12.03;;;7.30;99.90;;;;;;5007779;28;20233;-75
2021/11/24 10:12:05;;;;;;;17.13;10.93;;;7.30;99.90;;;;;;5007755;28;20221;-75
2021/11/24 10:14:32;;;;;;;17.43;10.73;;;7.40;99.90;;;;;;5007896;28;20668;-75
2021/11/24 10:17:05;;;;;;;20.53;11.23;;;7.40;99.90;;;;;;5007537;28;20241;-75
2021/11/24 10:19:31;;;;;;;17.37;10.37;;;7.40;99.90;;;;;;5007407;28;20199;-75
2021/11/24 10:22:01;;;;;;;17.77;10.43;;;7.40;99.90;;;;;;5007573;28;20306;-75
2021/11/24 10:24:32;;;;;;;16.20;10.87;;;7.40;99.90;;;;;;5006679;28;20209;-75
2021/11/24 10:26:59;;;;;;;17.93;10.80;;;7.40;99.90;;;;;;5007339;28;20209;-75
2021/11/24 10:29:27;;;;;;;16.80;10.47;;;7.40;99.90;;;;;;5007496;28;20208;-75
2021/11/24 10:31:56;;;;;;;15.97;9.77;;;7.40;99.90;;;;;;5007677;28;20213;-75
2021/11/24 10:34:25;;;;;;;17.73;10.67;;;7.40;99.90;;;;;;5007410;28;20324;-75
2021/11/24 10:37:00;;;;;;;14.40;9.00;;;7.50;99.90;;;;;;5007259;28;20324;-74
2021/11/24 10:39:32;;;;;;;19.00;10.00;;;7.50;99.90;;;;;;5007482;28;20197;-75
2021/11/24 10:42:11;;;;;;;13.97;9.63;;;7.50;99.90;;;;;;5007314;28;20206;-75
2021/11/24 10:44:38;;;;;;;13.37;9.53;;;7.60;99.90;;;;;;5007668;28;20228;-75
2021/11/24 10:47:07;;;;;;;11.13;8.47;;;7.60;99.90;;;;;;5007256;28;20296;-75
2021/11/24 10:49:39;;;;;;;13.53;8.90;;;7.80;99.90;;;;;;5007292;28;20214;-75
2021/11/24 10:52:29;;;;;;;9.87;7.83;;;7.80;99.90;;;;;;5007587;28;20280;-75
2021/11/24 10:55:00;;;;;;;11.70;8.90;;;7.80;99.90;;;;;;5008192;28;20226;-75
2021/11/24 10:57:27;;;;;;;10.97;7.87;;;7.80;99.90;;;;;;5006879;28;20320;-75
2021/11/24 11:00:02;;;;;;;10.33;7.70;;;7.80;99.90;;;;;;5007185;28;20245;-75
2021/11/24 11:02:32;;;;;;;7.60;5.93;;;7.80;99.90;;;;;;5006773;28;20229;-75
2021/11/24 11:05:12;;;;;;;9.77;6.60;;;7.80;99.90;;;;;;5007250;28;20293;-75
2021/11/24 11:07:42;;;;;;;7.50;6.20;;;7.80;99.90;;;;;;5007053;28;20669;-75
2021/11/24 11:10:13;;;;;;;7.33;6.63;;;7.80;99.90;;;;;;5007015;28;20293;-75
2021/11/24 11:12:43;;;;;;;7.40;5.53;;;7.80;99.90;;;;;;5006718;28;20282;-75
2021/11/24 11:15:16;;;;;;;6.93;5.57;;;7.80;99.90;;;;;;5006789;28;20245;-75
2021/11/24 11:17:59;;;;;;;7.80;5.97;;;7.80;99.90;;;;;;5006737;28;20234;-75
2021/11/24 11:20:28;;;;;;;8.97;5.50;;;7.80;99.90;;;;;;5006628;28;20194;-75
2021/11/24 11:23:04;;;;;;;6.43;5.80;;;7.70;99.90;;;;;;5006829;28;20300;-75
2021/11/24 11:25:32;;;;;;;6.60;5.83;;;7.70;99.90;;;;;;5006669;28;20189;-75
2021/11/24 11:28:01;;;;;;;7.00;6.30;;;7.60;99.90;;;;;;5007225;28;20215;-75
2021/11/24 11:30:28;;;;;;;5.93;5.37;;;7.60;99.90;;;;;;5006436;28;20216;-75
2021/11/24 11:32:56;;;;;;;6.97;6.00;;;7.50;99.90;;;;;;5006255;28;20788;-75
2021/11/24 11:35:24;;;;;;;8.80;6.97;;;7.60;99.90;;;;;;5006312;28;20296;-75
2021/11/24 11:37:51;;;;;;;7.70;6.50;;;7.50;99.90;;;;;;5006339;28;20234;-75
2021/11/24 11:40:19;;;;;;;7.10;6.20;;;7.50;99.90;;;;;;5006156;28;20300;-75
2021/11/24 11:42:50;;;;;;;8.33;7.47;;;7.50;99.90;;;;;;5006422;28;20305;-75
2021/11/24 11:45:19;;;;;;;7.37;5.80;;;7.60;99.90;;;;;;5006204;28;20660;-75
2021/11/24 11:47:50;;;;;;;6.43;5.83;;;7.60;99.90;;;;;;5006428;28;20210;-75
2021/11/24 11:50:48;;;;;;;7.47;6.40;;;7.60;99.90;;;;;;5006520;28;20197;-75
2021/11/24 11:53:18;;;;;;;8.30;6.57;;;7.60;99.90;;;;;;5006339;28;20473;-75
2021/11/24 11:55:47;;;;;;;7.97;5.67;;;7.60;99.90;;;;;;5006302;28;20279;-75
2021/11/24 11:58:26;;;;;;;7.43;5.90;;;7.70;99.90;;;;;;5006395;28;20329;-75
2021/11/24 12:01:08;;;;;;;6.00;5.37;;;7.70;99.90;;;;;;5006389;28;20228;-75
2021/11/24 12:04:00;;;;;;;6.10;5.50;;;7.80;99.90;;;;;;5005985;28;20293;-75
2021/11/24 12:06:29;;;;;;;6.03;5.13;;;7.80;99.90;;;;;;5006085;28;20208;-75
2021/11/24 12:09:29;;;;;;;6.23;5.23;;;7.80;99.90;;;;;;5006438;28;20304;-75
2021/11/24 12:12:11;;;;;;;10.83;5.70;;;7.80;99.90;;;;;;5005954;28;20272;-74
2021/11/24 12:14:57;;;;;;;5.80;4.97;;;7.80;99.90;;;;;;5006034;28;20190;-75
2021/11/24 12:17:36;;;;;;;5.50;5.00;;;7.80;99.90;;;;;;5005751;28;20227;-75
2021/11/24 12:20:42;;;;;;;5.33;4.80;;;7.80;99.90;;;;;;5005920;28;20216;-75
2021/11/24 12:23:21;;;;;;;5.03;4.53;;;7.80;99.90;;;;;;4998645;27;20244;-75
2021/11/24 12:25:50;;;;;;;4.93;4.43;;;7.80;99.90;;;;;;5005899;28;20285;-75
2021/11/24 12:28:20;;;;;;;5.70;4.73;;;7.80;99.90;;;;;;5005716;28;20213;-75
2021/11/24 12:31:14;;;;;;;5.77;4.57;;;7.80;99.90;;;;;;5005505;28;20213;-75
2021/11/24 12:33:48;;;;;;;4.87;4.37;;;7.80;99.90;;;;;;5005698;28;20233;-75
2021/11/24 12:36:17;;;;;;;7.30;4.63;;;7.80;99.90;;;;;;5005524;28;20282;-75
2021/11/24 12:38:47;;;;;;;5.83;5.23;;;7.80;99.90;;;;;;5005389;28;20793;-75
2021/11/24 12:41:17;;;;;;;6.37;4.73;;;7.80;99.90;;;;;;5005442;28;20197;-75
2021/11/24 12:43:47;;;;;;;7.27;4.97;;;7.80;99.90;;;;;;5005725;28;20316;-75
2021/11/24 12:46:17;;;;;;;6.20;5.27;;;7.80;99.90;;;;;;5005528;28;20621;-75
2021/11/24 12:48:47;;;;;;;5.60;5.10;;;7.80;99.90;;;;;;5007530;28;20647;-74